Xenia, Illinois
Current Conditions -  °F | °C
As of 8:15 AM on Monday 26 Jan 2015 (Local Time) from KFOA Reporting Station
Overcast Overcast  
Wind Chill: -7°   Ceiling: 1200
Heat Index: -3°   Visibility: 10mi
Dew Point: -5°   Wind: 8mph
Humidity: 86%   Direction: 330°NNW
Pressure: 30.03"   Gusts: NA
Location:  38.64°N, 88.63°W
Report Text: KFOA 261415Z AUTO 33007KT 10SM OVC012 M02/M05 A3003 RMK AO2 T10251046
Loading
Personal Weather Stations






























Interactive Weather Map New forecast layout! Learn more

10-Day Weather Forecast

Advertisements
Track Severe Weather on mobile